sensor_id;sensor_type;location;lat;lon;timestamp;pressure;altitude;pressure_sealevel;temperature;humidity
59951;BME280;45812;53.540;9.774;2022-09-09T00:02:17;100839.16;;;14.75;100.00
59951;BME280;45812;53.540;9.774;2022-09-09T00:04:47;100841.91;;;14.82;100.00
59951;BME280;45812;53.540;9.774;2022-09-09T00:07:25;100841.72;;;14.83;100.00
59951;BME280;45812;53.540;9.774;2022-09-09T00:10:13;100840.25;;;14.81;100.00
59951;BME280;45812;53.540;9.774;2022-09-09T00:16:04;100834.44;;;14.77;100.00
59951;BME280;45812;53.540;9.774;2022-09-09T00:18:45;100837.69;;;14.73;100.00
59951;BME280;45812;53.540;9.774;2022-09-09T00:21:15;100837.91;;;14.71;100.00
59951;BME280;45812;53.540;9.774;2022-09-09T00:23:53;100840.19;;;14.74;100.00
59951;BME280;45812;53.540;9.774;2022-09-09T00:26:32;100835.09;;;14.79;100.00
59951;BME280;45812;53.540;9.774;2022-09-09T00:29:13;100842.94;;;14.81;100.00
59951;BME280;45812;53.540;9.774;2022-09-09T00:31:40;100835.53;;;14.83;100.00
59951;BME280;45812;53.540;9.774;2022-09-09T00:34:21;100837.13;;;14.77;100.00
59951;BME280;45812;53.540;9.774;2022-09-09T00:36:49;100836.75;;;14.80;100.00
59951;BME280;45812;53.540;9.774;2022-09-09T00:39:37;100830.75;;;15.00;100.00
59951;BME280;45812;53.540;9.774;2022-09-09T00:42:14;100832.03;;;15.04;100.00
59951;BME280;45812;53.540;9.774;2022-09-09T00:47:46;100830.00;;;15.06;100.00
59951;BME280;45812;53.540;9.774;2022-09-09T00:58:23;100825.34;;;14.93;100.00
59951;BME280;45812;53.540;9.774;2022-09-09T01:03:41;100822.56;;;14.87;100.00
59951;BME280;45812;53.540;9.774;2022-09-09T01:06:30;100824.63;;;14.84;100.00
59951;BME280;45812;53.540;9.774;2022-09-09T01:09:45;100830.56;;;14.80;100.00
59951;BME280;45812;53.540;9.774;2022-09-09T01:12:03;100830.94;;;14.77;100.00
59951;BME280;45812;53.540;9.774;2022-09-09T01:22:35;100831.81;;;14.63;100.00
59951;BME280;45812;53.540;9.774;2022-09-09T01:25:28;100831.16;;;14.61;100.00
59951;BME280;45812;53.540;9.774;2022-09-09T01:27:58;100831.94;;;14.54;100.00
59951;BME280;45812;53.540;9.774;2022-09-09T01:30:26;100824.53;;;14.57;100.00
59951;BME280;45812;53.540;9.774;2022-09-09T01:32:57;100823.88;;;14.54;100.00
59951;BME280;45812;53.540;9.774;2022-09-09T01:35:37;100819.56;;;14.53;100.00
59951;BME280;45812;53.540;9.774;2022-09-09T01:38:04;100817.06;;;14.52;100.00
59951;BME280;45812;53.540;9.774;2022-09-09T01:40:29;100825.28;;;14.50;100.00
59951;BME280;45812;53.540;9.774;2022-09-09T01:42:55;100830.66;;;14.50;100.00
59951;BME280;45812;53.540;9.774;2022-09-09T01:45:21;100821.94;;;14.48;100.00
59951;BME280;45812;53.540;9.774;2022-09-09T01:47:47;100823.34;;;14.44;100.00
59951;BME280;45812;53.540;9.774;2022-09-09T01:50:15;100820.81;;;14.43;100.00
59951;BME280;45812;53.540;9.774;2022-09-09T01:52:41;100817.69;;;14.39;100.00
59951;BME280;45812;53.540;9.774;2022-09-09T01:55:08;100817.25;;;14.36;100.00
59951;BME280;45812;53.540;9.774;2022-09-09T01:57:41;100819.91;;;14.36;100.00
59951;BME280;45812;53.540;9.774;2022-09-09T02:00:11;100822.41;;;14.37;100.00
59951;BME280;45812;53.540;9.774;2022-09-09T02:05:42;100827.75;;;14.37;100.00
59951;BME280;45812;53.540;9.774;2022-09-09T02:08:15;100830.34;;;14.31;100.00
59951;BME280;45812;53.540;9.774;2022-09-09T02:11:07;100831.84;;;14.33;100.00
59951;BME280;45812;53.540;9.774;2022-09-09T02:13:37;100820.84;;;14.28;100.00
59951;BME280;45812;53.540;9.774;2022-09-09T02:16:22;100831.00;;;14.33;100.00
59951;BME280;45812;53.540;9.774;2022-09-09T02:18:53;100832.56;;;14.27;100.00
59951;BME280;45812;53.540;9.774;2022-09-09T02:21:22;100826.38;;;14.27;100.00
59951;BME280;45812;53.540;9.774;2022-09-09T02:23:48;100820.56;;;14.23;100.00
59951;BME280;45812;53.540;9.774;2022-09-09T02:26:18;100820.50;;;14.16;100.00
59951;BME280;45812;53.540;9.774;2022-09-09T02:28:48;100821.03;;;14.12;100.00
59951;BME280;45812;53.540;9.774;2022-09-09T02:31:17;100823.06;;;14.10;100.00
59951;BME280;45812;53.540;9.774;2022-09-09T02:33:47;100814.38;;;14.08;100.00
59951;BME280;45812;53.540;9.774;2022-09-09T02:36:17;100817.06;;;14.08;100.00
59951;BME280;45812;53.540;9.774;2022-09-09T02:38:46;100819.94;;;14.06;100.00
59951;BME280;45812;53.540;9.774;2022-09-09T02:41:23;100819.28;;;14.04;100.00
59951;BME280;45812;53.540;9.774;2022-09-09T02:43:50;100809.03;;;14.08;100.00
59951;BME280;45812;53.540;9.774;2022-09-09T02:49:18;100822.88;;;14.11;100.00
59951;BME280;45812;53.540;9.774;2022-09-09T02:52:04;100820.13;;;14.05;100.00
59951;BME280;45812;53.540;9.774;2022-09-09T02:54:32;100809.13;;;14.14;100.00
59951;BME280;45812;53.540;9.774;2022-09-09T02:57:22;100809.88;;;14.08;100.00
59951;BME280;45812;53.540;9.774;2022-09-09T02:59:49;100812.38;;;13.95;100.00
59951;BME280;45812;53.540;9.774;2022-09-09T03:02:15;100816.22;;;13.92;100.00
59951;BME280;45812;53.540;9.774;2022-09-09T03:04:40;100819.91;;;13.91;100.00
59951;BME280;45812;53.540;9.774;2022-09-09T03:07:09;100814.28;;;13.86;100.00
59951;BME280;45812;53.540;9.774;2022-09-09T03:09:35;100820.28;;;13.88;100.00
59951;BME280;45812;53.540;9.774;2022-09-09T03:12:00;100821.13;;;13.89;100.00
59951;BME280;45812;53.540;9.774;2022-09-09T03:14:26;100818.63;;;13.87;100.00
59951;BME280;45812;53.540;9.774;2022-09-09T03:16:52;100816.97;;;13.86;100.00
59951;BME280;45812;53.540;9.774;2022-09-09T03:19:17;100812.00;;;13.83;100.00
59951;BME280;45812;53.540;9.774;2022-09-09T03:21:44;100812.38;;;13.80;100.00
59951;BME280;45812;53.540;9.774;2022-09-09T03:24:09;100818.53;;;13.81;100.00
59951;BME280;45812;53.540;9.774;2022-09-09T03:26:35;100811.06;;;13.76;100.00
59951;BME280;45812;53.540;9.774;2022-09-09T03:29:00;100822.75;;;13.75;100.00
59951;BME280;45812;53.540;9.774;2022-09-09T03:31:26;100823.78;;;13.74;100.00
59951;BME280;45812;53.540;9.774;2022-09-09T03:33:55;100821.47;;;13.71;100.00
59951;BME280;45812;53.540;9.774;2022-09-09T03:36:21;100819.81;;;13.70;100.00
59951;BME280;45812;53.540;9.774;2022-09-09T03:38:46;100819.63;;;13.72;100.00
59951;BME280;45812;53.540;9.774;2022-09-09T03:41:11;100825.16;;;13.70;100.00
59951;BME280;45812;53.540;9.774;2022-09-09T03:43:37;100827.19;;;13.68;100.00
59951;BME280;45812;53.540;9.774;2022-09-09T03:46:03;100823.03;;;13.66;100.00
59951;BME280;45812;53.540;9.774;2022-09-09T03:48:28;100828.75;;;13.62;100.00
59951;BME280;45812;53.540;9.774;2022-09-09T03:50:54;100829.31;;;13.58;100.00
59951;BME280;45812;53.540;9.774;2022-09-09T03:53:22;100833.16;;;13.55;100.00
59951;BME280;45812;53.540;9.774;2022-09-09T03:55:51;100830.47;;;13.55;100.00
59951;BME280;45812;53.540;9.774;2022-09-09T03:58:21;100833.34;;;13.54;100.00
59951;BME280;45812;53.540;9.774;2022-09-09T04:00:56;100827.34;;;13.52;100.00
59951;BME280;45812;53.540;9.774;2022-09-09T04:03:23;100825.69;;;13.51;100.00
59951;BME280;45812;53.540;9.774;2022-09-09T04:05:54;100823.00;;;13.51;100.00
59951;BME280;45812;53.540;9.774;2022-09-09T04:08:20;100824.66;;;13.52;100.00
59951;BME280;45812;53.540;9.774;2022-09-09T04:10:47;100832.13;;;13.56;100.00
59951;BME280;45812;53.540;9.774;2022-09-09T04:13:14;100835.00;;;13.55;100.00
59951;BME280;45812;53.540;9.774;2022-09-09T04:15:42;100836.19;;;13.52;100.00
59951;BME280;45812;53.540;9.774;2022-09-09T04:18:08;100831.69;;;13.53;100.00
59951;BME280;45812;53.540;9.774;2022-09-09T04:20:33;100839.69;;;13.53;100.00
59951;BME280;45812;53.540;9.774;2022-09-09T04:22:59;100839.06;;;13.51;100.00
59951;BME280;45812;53.540;9.774;2022-09-09T04:25:24;100839.06;;;13.51;100.00
59951;BME280;45812;53.540;9.774;2022-09-09T04:27:56;100835.53;;;13.50;100.00
59951;BME280;45812;53.540;9.774;2022-09-09T04:30:24;100837.38;;;13.50;100.00
59951;BME280;45812;53.540;9.774;2022-09-09T04:32:50;100836.75;;;13.48;100.00
59951;BME280;45812;53.540;9.774;2022-09-09T04:35:15;100840.25;;;13.48;100.00
59951;BME280;45812;53.540;9.774;2022-09-09T04:37:41;100845.41;;;13.50;100.00
59951;BME280;45812;53.540;9.774;2022-09-09T04:40:07;100847.06;;;13.51;100.00
59951;BME280;45812;53.540;9.774;2022-09-09T04:42:35;100850.03;;;13.56;100.00
59951;BME280;45812;53.540;9.774;2022-09-09T04:45:02;100847.34;;;13.56;100.00
59951;BME280;45812;53.540;9.774;2022-09-09T04:47:28;100851.88;;;13.55;100.00
59951;BME280;45812;53.540;9.774;2022-09-09T04:49:53;100850.03;;;13.56;100.00
59951;BME280;45812;53.540;9.774;2022-09-09T04:52:20;100850.03;;;13.56;100.00
59951;BME280;45812;53.540;9.774;2022-09-09T04:54:45;100857.22;;;13.55;100.00
59951;BME280;45812;53.540;9.774;2022-09-09T04:57:10;100856.38;;;13.55;100.00
59951;BME280;45812;53.540;9.774;2022-09-09T04:59:36;100856.38;;;13.55;100.00
59951;BME280;45812;53.540;9.774;2022-09-09T05:02:01;100860.72;;;13.56;100.00
59951;BME280;45812;53.540;9.774;2022-09-09T05:04:27;100856.56;;;13.53;100.00
59951;BME280;45812;53.540;9.774;2022-09-09T05:06:53;100862.09;;;13.52;100.00
59951;BME280;45812;53.540;9.774;2022-09-09T05:09:19;100863.59;;;13.54;100.00
59951;BME280;45812;53.540;9.774;2022-09-09T05:11:44;100850.03;;;13.56;100.00
59951;BME280;45812;53.540;9.774;2022-09-09T05:14:09;100857.72;;;13.59;100.00
59951;BME280;45812;53.540;9.774;2022-09-09T05:16:37;100854.03;;;13.60;100.00
59951;BME280;45812;53.540;9.774;2022-09-09T05:19:02;100858.00;;;13.64;100.00
59951;BME280;45812;53.540;9.774;2022-09-09T05:21:28;100864.38;;;13.63;100.00
59951;BME280;45812;53.540;9.774;2022-09-09T05:23:56;100860.66;;;13.64;100.00
59951;BME280;45812;53.540;9.774;2022-09-09T05:26:21;100865.47;;;13.69;100.00
59951;BME280;45812;53.540;9.774;2022-09-09T05:28:47;100871.66;;;13.69;100.00
59951;BME280;45812;53.540;9.774;2022-09-09T05:31:14;100867.25;;;13.76;100.00
59951;BME280;45812;53.540;9.774;2022-09-09T05:33:41;100875.38;;;13.83;100.00
59951;BME280;45812;53.540;9.774;2022-09-09T05:36:09;100877.97;;;13.76;100.00
59951;BME280;45812;53.540;9.774;2022-09-09T05:38:36;100883.47;;;13.75;100.00
59951;BME280;45812;53.540;9.774;2022-09-09T05:41:02;100883.66;;;13.73;100.00
59951;BME280;45812;53.540;9.774;2022-09-09T05:43:28;100886.00;;;13.76;100.00
59951;BME280;45812;53.540;9.774;2022-09-09T05:46:08;100884.69;;;13.87;100.00
59951;BME280;45812;53.540;9.774;2022-09-09T05:48:36;100887.00;;;13.90;100.00
59951;BME280;45812;53.540;9.774;2022-09-09T05:51:03;100894.78;;;14.00;100.00
59951;BME280;45812;53.540;9.774;2022-09-09T05:53:29;100894.22;;;14.04;100.00
59951;BME280;45812;53.540;9.774;2022-09-09T05:56:20;100900.50;;;14.11;100.00
59951;BME280;45812;53.540;9.774;2022-09-09T05:58:47;100897.63;;;14.13;100.00
59951;BME280;45812;53.540;9.774;2022-09-09T06:01:16;100896.66;;;14.14;100.00
59951;BME280;45812;53.540;9.774;2022-09-09T06:03:44;100896.28;;;14.17;100.00
59951;BME280;45812;53.540;9.774;2022-09-09T06:06:11;100899.22;;;14.22;100.00
59951;BME280;45812;53.540;9.774;2022-09-09T06:08:39;100909.19;;;14.28;100.00
59951;BME280;45812;53.540;9.774;2022-09-09T06:11:08;100906.00;;;14.33;100.00
59951;BME280;45812;53.540;9.774;2022-09-09T06:13:34;100915.88;;;14.32;100.00
59951;BME280;45812;53.540;9.774;2022-09-09T06:16:00;100916.13;;;14.37;100.00
59951;BME280;45812;53.540;9.774;2022-09-09T06:18:26;100919.66;;;14.38;100.00
59951;BME280;45812;53.540;9.774;2022-09-09T06:20:58;100919.53;;;14.31;100.00
59951;BME280;45812;53.540;9.774;2022-09-09T06:23:26;100919.72;;;14.30;100.00
59951;BME280;45812;53.540;9.774;2022-09-09T06:26:00;100922.50;;;14.36;100.00
59951;BME280;45812;53.540;9.774;2022-09-09T06:28:26;100913.19;;;14.32;100.00
59951;BME280;45812;53.540;9.774;2022-09-09T06:31:00;100917.41;;;14.41;100.00
59951;BME280;45812;53.540;9.774;2022-09-09T06:33:26;100916.13;;;14.37;100.00
59951;BME280;45812;53.540;9.774;2022-09-09T06:35:53;100915.94;;;14.39;100.00
59951;BME280;45812;53.540;9.774;2022-09-09T06:38:19;100917.41;;;14.41;100.00
59951;BME280;45812;53.540;9.774;2022-09-09T06:40:51;100914.75;;;14.41;100.00
59951;BME280;45812;53.540;9.774;2022-09-09T06:43:18;100916.41;;;14.42;100.00
59951;BME280;45812;53.540;9.774;2022-09-09T06:45:58;100916.69;;;14.47;100.00
59951;BME280;45812;53.540;9.774;2022-09-09T06:48:24;100914.78;;;14.56;100.00
59951;BME280;45812;53.540;9.774;2022-09-09T06:51:01;100914.47;;;14.66;100.00
59951;BME280;45812;53.540;9.774;2022-09-09T06:53:26;100914.47;;;14.66;100.00
59951;BME280;45812;53.540;9.774;2022-09-09T06:55:52;100908.38;;;14.72;100.00
59951;BME280;45812;53.540;9.774;2022-09-09T06:58:18;100915.13;;;14.68;100.00
59951;BME280;45812;53.540;9.774;2022-09-09T07:00:43;100912.63;;;14.66;100.00
59951;BME280;45812;53.540;9.774;2022-09-09T07:03:10;100911.06;;;14.72;100.00
59951;BME280;45812;53.540;9.774;2022-09-09T07:05:36;100920.84;;;14.79;100.00
59951;BME280;45812;53.540;9.774;2022-09-09T07:08:02;100922.25;;;14.75;100.00
59951;BME280;45812;53.540;9.774;2022-09-09T07:10:27;100925.75;;;14.76;100.00
59951;BME280;45812;53.540;9.774;2022-09-09T07:12:53;100930.81;;;14.85;100.00
59951;BME280;45812;53.540;9.774;2022-09-09T07:15:19;100928.28;;;14.99;100.00
59951;BME280;45812;53.540;9.774;2022-09-09T07:17:45;100930.03;;;15.06;100.00
59951;BME280;45812;53.540;9.774;2022-09-09T07:20:10;100931.19;;;15.19;100.00
59951;BME280;45812;53.540;9.774;2022-09-09T07:22:36;100930.81;;;15.22;100.00
59951;BME280;45812;53.540;9.774;2022-09-09T07:25:02;100931.00;;;15.41;100.00
59951;BME280;45812;53.540;9.774;2022-09-09T07:27:28;100922.22;;;15.48;100.00
59951;BME280;45812;53.540;9.774;2022-09-09T07:29:53;100925.50;;;15.64;100.00
59951;BME280;45812;53.540;9.774;2022-09-09T07:32:19;100924.09;;;15.68;100.00
59951;BME280;45812;53.540;9.774;2022-09-09T07:34:45;100927.16;;;15.65;100.00
59951;BME280;45812;53.540;9.774;2022-09-09T07:37:12;100932.38;;;15.73;100.00
59951;BME280;45812;53.540;9.774;2022-09-09T07:39:39;100933.97;;;15.89;100.00
59951;BME280;45812;53.540;9.774;2022-09-09T07:42:04;100932.03;;;16.04;100.00
59951;BME280;45812;53.540;9.774;2022-09-09T07:44:30;100941.94;;;16.04;100.00
59951;BME280;45812;53.540;9.774;2022-09-09T07:46:57;100937.34;;;15.98;100.00
59951;BME280;45812;53.540;9.774;2022-09-09T07:49:22;100935.56;;;16.05;100.00
59951;BME280;45812;53.540;9.774;2022-09-09T07:51:48;100940.47;;;16.01;100.00
59951;BME280;45812;53.540;9.774;2022-09-09T07:54:16;100943.09;;;15.95;100.00
59951;BME280;45812;53.540;9.774;2022-09-09T07:56:42;100943.53;;;15.98;100.00
59951;BME280;45812;53.540;9.774;2022-09-09T07:59:08;100953.84;;;15.95;100.00
59951;BME280;45812;53.540;9.774;2022-09-09T08:01:39;100949.94;;;15.97;100.00
59951;BME280;45812;53.540;9.774;2022-09-09T08:04:07;100950.66;;;16.13;100.00
59951;BME280;45812;53.540;9.774;2022-09-09T08:06:36;100956.34;;;16.24;100.00
59951;BME280;45812;53.540;9.774;2022-09-09T08:09:03;100955.41;;;16.39;100.00
59951;BME280;45812;53.540;9.774;2022-09-09T08:11:29;100957.09;;;16.46;100.00
59951;BME280;45812;53.540;9.774;2022-09-09T08:13:55;100958.56;;;16.49;100.00
59951;BME280;45812;53.540;9.774;2022-09-09T08:16:23;100959.75;;;16.68;100.00
59951;BME280;45812;53.540;9.774;2022-09-09T08:18:49;100958.44;;;16.63;100.00
59951;BME280;45812;53.540;9.774;2022-09-09T08:21:18;100960.63;;;16.75;100.00
59951;BME280;45812;53.540;9.774;2022-09-09T08:23:45;100966.00;;;16.75;100.00
59951;BME280;45812;53.540;9.774;2022-09-09T08:26:13;100967.69;;;16.82;100.00
59951;BME280;45812;53.540;9.774;2022-09-09T08:28:40;100972.03;;;16.83;100.00
59951;BME280;45812;53.540;9.774;2022-09-09T08:31:10;100970.38;;;16.89;100.00
59951;BME280;45812;53.540;9.774;2022-09-09T08:33:36;100966.03;;;16.88;99.87
59951;BME280;45812;53.540;9.774;2022-09-09T08:36:04;100967.88;;;16.81;97.60
59951;BME280;45812;53.540;9.774;2022-09-09T08:38:29;100968.84;;;16.73;97.22
59951;BME280;45812;53.540;9.774;2022-09-09T08:41:03;100968.47;;;16.76;97.37
59951;BME280;45812;53.540;9.774;2022-09-09T08:43:33;100966.03;;;16.88;95.35
59951;BME280;45812;53.540;9.774;2022-09-09T08:46:07;100981.81;;;16.98;95.35
59951;BME280;45812;53.540;9.774;2022-09-09T08:51:07;100984.81;;;17.22;94.93
59951;BME280;45812;53.540;9.774;2022-09-09T08:53:43;100980.72;;;17.46;95.57
59951;BME280;45812;53.540;9.774;2022-09-09T08:56:14;100982.84;;;17.64;93.84
59951;BME280;45812;53.540;9.774;2022-09-09T08:58:48;100983.31;;;17.81;92.89
59951;BME280;45812;53.540;9.774;2022-09-09T09:09:50;100985.38;;;17.99;90.63
59951;BME280;45812;53.540;9.774;2022-09-09T09:12:26;100980.63;;;18.14;90.78
59951;BME280;45812;53.540;9.774;2022-09-09T09:14:52;100983.13;;;18.09;88.58
59951;BME280;45812;53.540;9.774;2022-09-09T09:17:21;100978.16;;;18.12;88.74
59951;BME280;45812;53.540;9.774;2022-09-09T09:19:49;100987.28;;;18.11;87.31
59951;BME280;45812;53.540;9.774;2022-09-09T09:22:21;100987.69;;;18.08;87.05
59951;BME280;45812;53.540;9.774;2022-09-09T09:25:14;100981.47;;;18.14;86.41
59951;BME280;45812;53.540;9.774;2022-09-09T09:30:17;100981.03;;;18.44;87.75
59951;BME280;45812;53.540;9.774;2022-09-09T09:32:51;100982.84;;;18.83;89.32
59951;BME280;45812;53.540;9.774;2022-09-09T09:35:18;100979.50;;;18.88;84.03
59951;BME280;45812;53.540;9.774;2022-09-09T09:37:43;100977.09;;;19.11;85.61
59951;BME280;45812;53.540;9.774;2022-09-09T09:40:12;100980.28;;;19.01;82.66
59951;BME280;45812;53.540;9.774;2022-09-09T09:42:47;100980.59;;;19.63;83.58
59951;BME280;45812;53.540;9.774;2022-09-09T09:45:32;100973.53;;;20.80;80.81
59951;BME280;45812;53.540;9.774;2022-09-09T09:50:25;100978.13;;;21.76;71.15
59951;BME280;45812;53.540;9.774;2022-09-09T09:52:58;100974.19;;;22.49;71.19
59951;BME280;45812;53.540;9.774;2022-09-09T09:55:25;100981.72;;;22.93;64.64
59951;BME280;45812;53.540;9.774;2022-09-09T09:57:51;100983.28;;;22.19;66.97
59951;BME280;45812;53.540;9.774;2022-09-09T10:00:22;100985.28;;;22.35;65.27
59951;BME280;45812;53.540;9.774;2022-09-09T10:02:49;100979.38;;;22.74;64.31
59951;BME280;45812;53.540;9.774;2022-09-09T10:05:24;100985.59;;;23.54;61.60
59951;BME280;45812;53.540;9.774;2022-09-09T10:08:10;100977.75;;;23.41;61.38
59951;BME280;45812;53.540;9.774;2022-09-09T10:13:29;100985.75;;;23.76;58.60
59951;BME280;45812;53.540;9.774;2022-09-09T10:16:17;100975.41;;;25.01;55.20
59951;BME280;45812;53.540;9.774;2022-09-09T10:21:28;100968.41;;;27.18;46.92
59951;BME280;45812;53.540;9.774;2022-09-09T10:35:14;100964.53;;;28.81;39.16
59951;BME280;45812;53.540;9.774;2022-09-09T10:40:59;100957.97;;;27.04;42.77
59951;BME280;45812;53.540;9.774;2022-09-09T10:46:22;100954.84;;;27.63;42.04
59951;BME280;45812;53.540;9.774;2022-09-09T10:51:45;100959.16;;;27.39;45.08
59951;BME280;45812;53.540;9.774;2022-09-09T10:54:25;100959.78;;;26.83;44.98
59951;BME280;45812;53.540;9.774;2022-09-09T10:57:03;100954.81;;;26.70;47.52
59951;BME280;45812;53.540;9.774;2022-09-09T10:59:40;100959.84;;;26.41;46.51
59951;BME280;45812;53.540;9.774;2022-09-09T11:02:17;100952.78;;;25.22;50.67
59951;BME280;45812;53.540;9.774;2022-09-09T11:07:13;100960.41;;;24.38;53.46
59951;BME280;45812;53.540;9.774;2022-09-09T11:09:49;100944.47;;;24.13;55.79
59951;BME280;45812;53.540;9.774;2022-09-09T11:12:18;100949.75;;;23.69;56.08
59951;BME280;45812;53.540;9.774;2022-09-09T11:14:51;100947.00;;;23.52;58.34
59951;BME280;45812;53.540;9.774;2022-09-09T11:17:34;100951.47;;;23.30;58.82
59951;BME280;45812;53.540;9.774;2022-09-09T11:20:01;100945.59;;;23.21;58.44
59951;BME280;45812;53.540;9.774;2022-09-09T11:25:37;100946.50;;;22.35;60.85
59951;BME280;45812;53.540;9.774;2022-09-09T11:31:35;100948.66;;;22.96;61.46
59951;BME280;45812;53.540;9.774;2022-09-09T11:34:21;100941.69;;;23.91;56.96
59951;BME280;45812;53.540;9.774;2022-09-09T11:42:25;100953.16;;;23.93;54.51
59951;BME280;45812;53.540;9.774;2022-09-09T11:44:51;100960.16;;;23.89;54.88
59951;BME280;45812;53.540;9.774;2022-09-09T11:47:27;100968.78;;;23.41;54.93
59951;BME280;45812;53.540;9.774;2022-09-09T11:52:41;100968.97;;;22.82;58.36
59951;BME280;45812;53.540;9.774;2022-09-09T11:55:11;100962.00;;;22.75;60.59
59951;BME280;45812;53.540;9.774;2022-09-09T11:57:38;100960.59;;;22.72;60.13
59951;BME280;45812;53.540;9.774;2022-09-09T12:00:05;100963.03;;;23.09;59.98
59951;BME280;45812;53.540;9.774;2022-09-09T12:02:30;100956.91;;;23.30;59.88
59951;BME280;45812;53.540;9.774;2022-09-09T12:05:08;100953.47;;;23.80;57.31
59951;BME280;45812;53.540;9.774;2022-09-09T12:07:59;100950.41;;;23.76;55.59
59951;BME280;45812;53.540;9.774;2022-09-09T12:10:30;100952.72;;;23.39;56.82
59951;BME280;45812;53.540;9.774;2022-09-09T12:13:16;100951.72;;;23.57;56.76
59951;BME280;45812;53.540;9.774;2022-09-09T12:15:52;100942.00;;;23.78;56.43
59951;BME280;45812;53.540;9.774;2022-09-09T12:18:38;100937.91;;;24.09;55.50
59951;BME280;45812;53.540;9.774;2022-09-09T12:23:52;100945.66;;;23.67;56.22
59951;BME280;45812;53.540;9.774;2022-09-09T12:34:36;100945.34;;;23.51;57.51
59951;BME280;45812;53.540;9.774;2022-09-09T12:39:45;100948.69;;;23.42;59.59
59951;BME280;45812;53.540;9.774;2022-09-09T12:42:19;100943.31;;;23.59;56.38
59951;BME280;45812;53.540;9.774;2022-09-09T12:44:52;100942.56;;;23.18;57.58
59951;BME280;45812;53.540;9.774;2022-09-09T12:47:19;100943.13;;;22.68;60.02
59951;BME280;45812;53.540;9.774;2022-09-09T12:49:47;100949.56;;;22.50;60.76
59951;BME280;45812;53.540;9.774;2022-09-09T12:54:45;100960.56;;;21.79;64.44
59951;BME280;45812;53.540;9.774;2022-09-09T12:57:19;100965.19;;;21.48;65.26
59951;BME280;45812;53.540;9.774;2022-09-09T12:59:47;100955.25;;;21.12;66.04
59951;BME280;45812;53.540;9.774;2022-09-09T13:02:26;100961.41;;;21.01;67.37
59951;BME280;45812;53.540;9.774;2022-09-09T13:04:53;100974.53;;;20.67;68.54
59951;BME280;45812;53.540;9.774;2022-09-09T13:07:20;100978.03;;;20.49;71.39
59951;BME280;45812;53.540;9.774;2022-09-09T13:09:47;100982.38;;;20.25;72.33
59951;BME280;45812;53.540;9.774;2022-09-09T13:12:17;100970.28;;;20.10;73.23
59951;BME280;45812;53.540;9.774;2022-09-09T13:14:45;100965.47;;;20.12;74.17
59951;BME280;45812;53.540;9.774;2022-09-09T13:17:22;100958.84;;;20.08;74.21
59951;BME280;45812;53.540;9.774;2022-09-09T13:19:49;100955.66;;;19.92;74.71
59951;BME280;45812;53.540;9.774;2022-09-09T13:22:34;100948.25;;;19.81;76.14
59951;BME280;45812;53.540;9.774;2022-09-09T13:25:01;100959.16;;;19.68;76.27
59951;BME280;45812;53.540;9.774;2022-09-09T13:27:36;100966.72;;;19.59;75.74
59951;BME280;45812;53.540;9.774;2022-09-09T13:30:39;100977.72;;;19.58;72.96
59951;BME280;45812;53.540;9.774;2022-09-09T13:38:15;100989.16;;;19.53;70.48
59951;BME280;45812;53.540;9.774;2022-09-09T13:40:55;100994.56;;;19.47;71.31
59951;BME280;45812;53.540;9.774;2022-09-09T13:43:23;101003.28;;;19.49;71.48
59951;BME280;45812;53.540;9.774;2022-09-09T13:45:55;101004.19;;;19.36;73.03
59951;BME280;45812;53.540;9.774;2022-09-09T13:48:22;101003.44;;;19.22;74.01
59951;BME280;45812;53.540;9.774;2022-09-09T13:51:04;100994.13;;;19.18;75.99
59951;BME280;45812;53.540;9.774;2022-09-09T13:53:32;100994.94;;;19.19;77.61
59951;BME280;45812;53.540;9.774;2022-09-09T13:55:58;100994.34;;;19.10;78.55
59951;BME280;45812;53.540;9.774;2022-09-09T13:58:24;100987.09;;;19.04;80.00
59951;BME280;45812;53.540;9.774;2022-09-09T14:00:51;100989.38;;;19.07;81.04
59951;BME280;45812;53.540;9.774;2022-09-09T14:03:16;100988.38;;;18.95;82.11
59951;BME280;45812;53.540;9.774;2022-09-09T14:05:44;100987.97;;;18.91;82.42
59951;BME280;45812;53.540;9.774;2022-09-09T14:08:20;100978.22;;;18.90;83.07
59951;BME280;45812;53.540;9.774;2022-09-09T14:10:46;100979.06;;;18.91;83.02
59951;BME280;45812;53.540;9.774;2022-09-09T14:13:12;100982.97;;;18.95;82.70
59951;BME280;45812;53.540;9.774;2022-09-09T14:15:37;100980.72;;;18.98;82.26
59951;BME280;45812;53.540;9.774;2022-09-09T14:18:03;100986.94;;;18.99;82.15
59951;BME280;45812;53.540;9.774;2022-09-09T14:20:28;100985.69;;;18.95;81.92
59951;BME280;45812;53.540;9.774;2022-09-09T14:22:54;100985.66;;;19.01;83.21
59951;BME280;45812;53.540;9.774;2022-09-09T14:25:19;100990.84;;;19.03;81.84
59951;BME280;45812;53.540;9.774;2022-09-09T14:27:44;100989.84;;;18.91;82.59
59951;BME280;45812;53.540;9.774;2022-09-09T14:30:11;100986.81;;;18.67;82.79
59951;BME280;45812;53.540;9.774;2022-09-09T14:32:36;100995.53;;;18.43;84.56
59951;BME280;45812;53.540;9.774;2022-09-09T14:35:02;100997.63;;;18.14;86.32
59951;BME280;45812;53.540;9.774;2022-09-09T14:37:27;100991.19;;;18.02;87.54
59951;BME280;45812;53.540;9.774;2022-09-09T14:39:52;100986.00;;;18.01;88.84
59951;BME280;45812;53.540;9.774;2022-09-09T14:42:19;100977.94;;;18.14;88.34
59951;BME280;45812;53.540;9.774;2022-09-09T14:44:44;100977.91;;;18.21;87.14
59951;BME280;45812;53.540;9.774;2022-09-09T14:47:09;100979.19;;;18.05;86.49
59951;BME280;45812;53.540;9.774;2022-09-09T14:49:35;100974.19;;;18.02;87.81